createdAt,value
2017-02-01T00:00:57.137Z,1.97
2017-02-01T00:01:57.117Z,1.98
2017-02-01T00:02:57.096Z,1.93
2017-02-01T00:03:56.680Z,1.9
2017-02-01T00:04:56.659Z,1.97
2017-02-01T00:05:57.026Z,2.06
2017-02-01T00:06:57.209Z,1.99
2017-02-01T00:07:56.985Z,1.97
2017-02-01T00:08:56.961Z,2.02
2017-02-01T00:09:56.940Z,2.08
2017-02-01T00:10:56.523Z,2.15
2017-02-01T00:11:56.892Z,2.09
2017-02-01T00:12:56.872Z,2.16
2017-02-01T00:13:56.852Z,2.12
2017-02-01T00:14:56.825Z,2.12
2017-02-01T00:15:56.803Z,2.09
2017-02-01T00:16:56.785Z,2.16
2017-02-01T00:17:56.765Z,2.17
2017-02-01T00:18:56.740Z,2.15
2017-02-01T00:19:56.718Z,2.12
2017-02-01T00:20:56.693Z,2.12
2017-02-01T00:21:56.675Z,2.27
2017-02-01T00:22:56.644Z,2.19
2017-02-01T00:23:56.628Z,2.27
2017-02-01T00:24:56.618Z,2.17
2017-02-01T00:25:56.585Z,2.12
2017-02-01T00:26:56.562Z,2.15
2017-02-01T00:27:56.540Z,2.2
2017-02-01T00:28:56.528Z,2.15
2017-02-01T00:29:56.501Z,2.16
2017-02-01T00:30:56.479Z,2.26
2017-02-01T00:31:56.458Z,2.27
2017-02-01T00:32:56.426Z,2.28
2017-02-01T00:33:56.410Z,2.15
2017-02-01T00:34:56.389Z,2.28
2017-02-01T00:35:56.367Z,2.31
2017-02-01T00:36:56.349Z,2.33
2017-02-01T00:37:55.927Z,2.28
2017-02-01T00:38:56.306Z,2.3
2017-02-01T00:39:56.286Z,2.28
2017-02-01T00:40:56.257Z,2.28
2017-02-01T00:41:56.238Z,2.3
2017-02-01T00:42:56.219Z,2.28
2017-02-01T00:43:56.197Z,2.3
2017-02-01T00:44:55.779Z,2.33
2017-02-01T00:45:56.154Z,2.34
2017-02-01T00:46:56.136Z,2.31
2017-02-01T00:47:56.110Z,2.3
2017-02-01T00:48:56.084Z,2.31
2017-02-01T00:49:56.062Z,2.37
2017-02-01T00:50:56.045Z,2.35
2017-02-01T00:51:56.021Z,2.38
2017-02-01T00:52:55.607Z,2.34
2017-02-01T00:53:55.982Z,2.31
2017-02-01T00:54:55.960Z,2.31
2017-02-01T00:55:55.933Z,2.33
2017-02-01T00:56:55.911Z,2.37
2017-02-01T00:57:55.895Z,2.35
2017-02-01T00:58:55.897Z,2.33
2017-02-01T00:59:55.849Z,2.45
2017-02-01T01:00:55.832Z,2.37
2017-02-01T01:01:55.809Z,2.4
2017-02-01T01:02:55.785Z,2.37
2017-02-01T01:03:55.760Z,2.4
2017-02-01T01:04:55.747Z,2.48
2017-02-01T01:05:55.718Z,2.37
2017-02-01T01:06:55.698Z,2.33
2017-02-01T01:07:55.675Z,2.4
2017-02-01T01:08:55.677Z,2.35
2017-02-01T01:09:55.643Z,2.33
2017-02-01T01:10:55.626Z,2.45
2017-02-01T01:11:55.592Z,2.45
2017-02-01T01:12:55.571Z,2.48
2017-02-01T01:13:55.547Z,2.44
2017-02-01T01:14:55.527Z,2.45
2017-02-01T01:15:55.109Z,2.44
2017-02-01T01:16:55.485Z,2.49
2017-02-01T01:17:55.466Z,2.4
2017-02-01T01:18:55.442Z,2.46
2017-02-01T01:19:55.421Z,2.51
2017-02-01T01:20:55.392Z,2.45
2017-02-01T01:21:55.375Z,2.49
2017-02-01T01:22:55.356Z,2.48
2017-02-01T01:23:55.340Z,2.52
2017-02-01T01:24:55.309Z,2.59
2017-02-01T01:25:55.295Z,2.59
2017-02-01T01:26:55.266Z,2.56
2017-02-01T01:27:55.252Z,2.56
2017-02-01T01:28:55.221Z,2.56
2017-02-01T01:29:55.205Z,2.56
2017-02-01T01:30:55.187Z,2.59
2017-02-01T01:31:55.156Z,2.52
2017-02-01T01:32:55.139Z,2.61
2017-02-01T01:33:55.120Z,2.61
2017-02-01T01:34:55.100Z,2.58
2017-02-01T01:35:55.079Z,2.63
2017-02-01T01:36:55.051Z,2.63
2017-02-01T01:37:55.034Z,2.58
2017-02-01T01:38:55.009Z,2.66
2017-02-01T01:39:54.990Z,2.56
2017-02-01T01:40:54.978Z,2.64
2017-02-01T01:41:54.952Z,2.56
2017-02-01T01:42:54.924Z,2.66
2017-02-01T01:43:54.904Z,2.53
2017-02-01T01:44:54.520Z,2.59
2017-02-01T01:45:54.865Z,2.63
2017-02-01T01:46:54.843Z,2.64
2017-02-01T01:47:54.820Z,2.69
2017-02-01T01:48:54.802Z,2.7
2017-02-01T01:49:54.774Z,2.59
2017-02-01T01:50:54.758Z,2.66
2017-02-01T01:51:54.760Z,2.59
2017-02-01T01:52:54.713Z,2.63
2017-02-01T01:53:54.694Z,2.67
2017-02-01T01:54:54.671Z,2.63
2017-02-01T01:55:54.652Z,2.58
2017-02-01T01:56:54.628Z,2.66
2017-02-01T01:57:54.602Z,2.66
2017-02-01T01:58:54.587Z,2.61
2017-02-01T01:59:54.566Z,2.67
2017-02-01T02:00:54.542Z,2.69
2017-02-01T02:01:54.529Z,2.66
2017-02-01T02:02:54.503Z,2.66
2017-02-01T02:03:54.496Z,2.66
2017-02-01T02:04:54.460Z,2.66
2017-02-01T02:05:54.443Z,2.58
2017-02-01T02:06:54.619Z,2.63
2017-02-01T02:07:54.395Z,2.73
2017-02-01T02:08:54.370Z,2.67
2017-02-01T02:09:54.349Z,2.59
2017-02-01T02:10:54.338Z,2.73
2017-02-01T02:11:54.306Z,2.77
2017-02-01T02:12:54.293Z,2.66
2017-02-01T02:13:54.264Z,2.74
2017-02-01T02:14:54.246Z,2.61
2017-02-01T02:15:54.226Z,2.71
2017-02-01T02:16:54.204Z,2.69
2017-02-01T02:17:54.178Z,2.7
2017-02-01T02:18:54.168Z,2.59
2017-02-01T02:19:54.142Z,2.81
2017-02-01T02:20:54.121Z,2.73
2017-02-01T02:21:54.097Z,2.63
2017-02-01T02:22:54.104Z,2.7
2017-02-01T02:23:54.056Z,2.74
2017-02-01T02:24:54.034Z,2.74
2017-02-01T02:25:54.022Z,2.73
2017-02-01T02:26:53.991Z,2.76
2017-02-01T02:27:53.973Z,2.7
2017-02-01T02:28:53.949Z,2.7
2017-02-01T02:29:53.931Z,2.69
2017-02-01T02:30:53.903Z,2.79
2017-02-01T02:31:53.893Z,2.74
2017-02-01T02:32:53.472Z,2.76
2017-02-01T02:33:53.453Z,2.76
2017-02-01T02:34:53.819Z,2.77
2017-02-01T02:35:53.811Z,2.76
2017-02-01T02:36:53.777Z,2.76
2017-02-01T02:37:53.752Z,2.77
2017-02-01T02:38:53.737Z,2.73
2017-02-01T02:39:53.715Z,2.73
2017-02-01T02:40:53.694Z,2.77
2017-02-01T02:41:53.669Z,2.77
2017-02-01T02:42:53.654Z,2.82
2017-02-01T02:43:53.628Z,2.76
2017-02-01T02:44:53.608Z,2.77
2017-02-01T02:45:53.584Z,2.76
2017-02-01T02:46:53.564Z,2.81
2017-02-01T02:47:53.147Z,2.76
2017-02-01T02:48:53.522Z,2.82
2017-02-01T02:49:53.510Z,2.76
2017-02-01T02:50:53.481Z,2.81
2017-02-01T02:51:53.464Z,2.81
2017-02-01T02:52:53.436Z,2.85
2017-02-01T02:53:53.424Z,2.81
2017-02-01T02:54:53.399Z,2.84
2017-02-01T02:55:52.983Z,2.82
2017-02-01T02:56:53.357Z,2.79
2017-02-01T02:57:53.332Z,2.76
2017-02-01T02:58:53.311Z,2.77
2017-02-01T02:59:53.289Z,2.84
2017-02-01T03:00:53.265Z,2.82
2017-02-01T03:01:53.259Z,2.87
2017-02-01T03:02:53.225Z,2.87
2017-02-01T03:03:53.206Z,2.81
2017-02-01T03:04:53.186Z,2.82
2017-02-01T03:05:53.163Z,2.81
2017-02-01T03:06:52.750Z,2.81
2017-02-01T03:07:53.148Z,2.77
2017-02-01T03:08:53.101Z,2.77
2017-02-01T03:09:53.076Z,2.81
2017-02-01T03:10:53.055Z,2.85
2017-02-01T03:11:53.040Z,2.91
2017-02-01T03:12:53.019Z,2.91
2017-02-01T03:13:52.997Z,2.88
2017-02-01T03:14:52.994Z,2.87
2017-02-01T03:15:52.950Z,2.81
2017-02-01T03:16:52.930Z,2.81
2017-02-01T03:17:52.914Z,2.88
2017-02-01T03:18:52.892Z,2.84
2017-02-01T03:19:52.473Z,2.81
2017-02-01T03:20:52.848Z,2.85
2017-02-01T03:21:52.827Z,2.91
2017-02-01T03:22:52.801Z,2.94
2017-02-01T03:23:52.784Z,2.94
2017-02-01T03:24:52.761Z,2.91
2017-02-01T03:25:52.749Z,2.91
2017-02-01T03:26:52.722Z,2.89
2017-02-01T03:27:52.701Z,2.94
2017-02-01T03:28:52.673Z,2.91
2017-02-01T03:29:52.661Z,2.95
2017-02-01T03:30:52.638Z,2.92
2017-02-01T03:31:52.615Z,2.95
2017-02-01T03:32:52.594Z,2.88
2017-02-01T03:33:52.569Z,2.89
2017-02-01T03:34:52.548Z,2.87
2017-02-01T03:35:52.137Z,2.89
2017-02-01T03:36:52.515Z,2.89
2017-02-01T03:37:52.486Z,2.92
2017-02-01T03:38:52.468Z,2.89
2017-02-01T03:39:52.445Z,2.97
2017-02-01T03:40:52.426Z,2.92
2017-02-01T03:41:52.404Z,2.98
2017-02-01T03:42:52.392Z,2.89
2017-02-01T03:43:52.365Z,3
2017-02-01T03:44:52.357Z,2.92
2017-02-01T03:45:52.319Z,3.05
2017-02-01T03:46:52.311Z,2.97
2017-02-01T03:47:52.287Z,3.02
2017-02-01T03:48:52.259Z,3
2017-02-01T03:49:52.240Z,2.89
2017-02-01T03:50:52.236Z,3.05
2017-02-01T03:51:52.200Z,3
2017-02-01T03:52:52.171Z,3.09
2017-02-01T03:53:52.150Z,3.03
2017-02-01T03:54:52.140Z,2.97
2017-02-01T03:55:52.111Z,2.95
2017-02-01T03:56:51.696Z,2.95
2017-02-01T03:57:51.671Z,3
2017-02-01T03:58:52.047Z,2.98
2017-02-01T03:59:51.630Z,3.05
2017-02-01T04:00:52.008Z,3.16
2017-02-01T04:01:51.979Z,3.06
2017-02-01T04:02:51.970Z,3.05
2017-02-01T04:03:51.941Z,3.09
2017-02-01T04:04:51.920Z,3.12
2017-02-01T04:05:51.910Z,3.09
2017-02-01T04:06:52.356Z,3.12
2017-02-01T04:07:51.862Z,3.09
2017-02-01T04:08:51.841Z,3.1
2017-02-01T04:09:51.818Z,3.18
2017-02-01T04:10:51.798Z,3.13
2017-02-01T04:11:51.774Z,3.18
2017-02-01T04:12:51.789Z,3.09
2017-02-01T04:13:51.339Z,3.1
2017-02-01T04:14:51.732Z,3.1
2017-02-01T04:15:51.689Z,3.12
2017-02-01T04:16:51.668Z,3.18
2017-02-01T04:17:51.650Z,3.15
2017-02-01T04:18:51.663Z,3.1
2017-02-01T04:19:51.607Z,3.1
2017-02-01T04:20:51.593Z,3.12
2017-02-01T04:21:51.584Z,3.09
2017-02-01T04:22:51.558Z,3.12
2017-02-01T04:23:51.530Z,3.06
2017-02-01T04:24:51.506Z,3.07
2017-02-01T04:25:51.486Z,3.09
2017-02-01T04:26:51.466Z,3.15
2017-02-01T04:27:51.443Z,3.16
2017-02-01T04:28:51.439Z,3.12
2017-02-01T04:29:51.408Z,3.15
2017-02-01T04:30:51.385Z,3.09
2017-02-01T04:31:50.961Z,3.13
2017-02-01T04:32:50.945Z,3.2
2017-02-01T04:33:50.922Z,3.13
2017-02-01T04:34:51.295Z,3.1
2017-02-01T04:35:51.274Z,3.13
2017-02-01T04:36:51.258Z,3.12
2017-02-01T04:37:51.233Z,3.16
2017-02-01T04:38:51.214Z,3.12
2017-02-01T04:39:51.194Z,3.13
2017-02-01T04:40:51.175Z,3.12
2017-02-01T04:41:51.147Z,3.16
2017-02-01T04:42:51.132Z,3.18
2017-02-01T04:43:50.724Z,3.18
2017-02-01T04:44:50.694Z,3.13
2017-02-01T04:45:51.074Z,3.12
2017-02-01T04:46:51.052Z,3.15
2017-02-01T04:47:51.028Z,3.18
2017-02-01T04:48:51.007Z,3.1
2017-02-01T04:49:50.983Z,3.2
2017-02-01T04:50:50.565Z,3.15
2017-02-01T04:51:50.946Z,3.1
2017-02-01T04:52:50.956Z,3.21
2017-02-01T04:53:50.906Z,3.2
2017-02-01T04:54:50.881Z,3.16
2017-02-01T04:55:50.856Z,3.21
2017-02-01T04:56:50.837Z,3.16
2017-02-01T04:57:50.422Z,3.15
2017-02-01T04:58:50.798Z,3.23
2017-02-01T04:59:50.772Z,3.23
2017-02-01T05:00:50.785Z,3.16
2017-02-01T05:01:50.730Z,3.18
2017-02-01T05:02:50.716Z,3.21
2017-02-01T05:03:50.691Z,3.18
2017-02-01T05:04:50.280Z,3.15
2017-02-01T05:05:50.657Z,3.18
2017-02-01T05:06:50.785Z,3.21
2017-02-01T05:07:50.617Z,3.2
2017-02-01T05:08:50.595Z,3.23
2017-02-01T05:09:50.569Z,3.13
2017-02-01T05:10:50.558Z,3.16
2017-02-01T05:11:50.537Z,3.2
2017-02-01T05:12:50.142Z,3.21
2017-02-01T05:13:50.491Z,3.12
2017-02-01T05:14:50.461Z,3.2
2017-02-01T05:15:50.445Z,3.18
2017-02-01T05:16:50.426Z,3.13
2017-02-01T05:17:50.400Z,3.16
2017-02-01T05:18:50.382Z,3.18
2017-02-01T05:19:50.360Z,3.21
2017-02-01T05:20:50.339Z,3.09
2017-02-01T05:21:50.322Z,3.12
2017-02-01T05:22:50.300Z,3.13
2017-02-01T05:23:49.888Z,3.16
2017-02-01T05:24:50.257Z,3.13
2017-02-01T05:25:50.233Z,3.23
2017-02-01T05:26:50.213Z,3.13
2017-02-01T05:27:50.194Z,3.07
2017-02-01T05:28:50.176Z,3.13
2017-02-01T05:29:50.157Z,3.21
2017-02-01T05:30:50.132Z,3.12
2017-02-01T05:31:50.114Z,3.15
2017-02-01T05:32:50.090Z,3.12
2017-02-01T05:33:50.073Z,3.15
2017-02-01T05:34:50.048Z,3.2
2017-02-01T05:35:50.029Z,3.16
2017-02-01T05:36:50.018Z,3.12
2017-02-01T05:37:49.986Z,3.2
2017-02-01T05:38:49.965Z,3.23
2017-02-01T05:39:49.950Z,3.13
2017-02-01T05:40:49.924Z,3.16
2017-02-01T05:41:49.911Z,3.12
2017-02-01T05:42:49.908Z,3.24
2017-02-01T05:43:49.866Z,3.13
2017-02-01T05:44:49.841Z,3.15
2017-02-01T05:45:49.828Z,3.1
2017-02-01T05:46:49.802Z,3.09
2017-02-01T05:47:49.800Z,3.1
2017-02-01T05:48:49.762Z,3.24
2017-02-01T05:49:49.735Z,3.18
2017-02-01T05:50:49.717Z,3.16
2017-02-01T05:51:49.722Z,3.15
2017-02-01T05:52:49.676Z,3.16
2017-02-01T05:53:49.659Z,3.12
2017-02-01T05:54:49.641Z,3.21
2017-02-01T05:55:49.224Z,3.13
2017-02-01T05:56:49.592Z,3.13
2017-02-01T05:57:49.185Z,3.13
2017-02-01T05:58:49.555Z,3.12
2017-02-01T05:59:49.529Z,3.1
2017-02-01T06:00:49.514Z,3.16
2017-02-01T06:01:49.487Z,3.2
2017-02-01T06:02:49.080Z,3.18
2017-02-01T06:03:49.447Z,3.13
2017-02-01T06:04:49.428Z,3.18
2017-02-01T06:05:49.402Z,3.16
2017-02-01T06:06:49.387Z,3.06
2017-02-01T06:07:49.363Z,3.13
2017-02-01T06:08:49.342Z,3.21
2017-02-01T06:09:49.322Z,3.18
2017-02-01T06:10:49.301Z,3.13
2017-02-01T06:11:49.283Z,3.12
2017-02-01T06:12:48.863Z,3.16
2017-02-01T06:13:49.240Z,3.16
2017-02-01T06:14:49.218Z,3.2
2017-02-01T06:15:49.195Z,3.15
2017-02-01T06:16:48.382Z,3.21
2017-02-01T06:17:49.155Z,3.16
2017-02-01T06:18:49.132Z,3.15
2017-02-01T06:19:49.114Z,3.16
2017-02-01T06:20:49.092Z,3.16
2017-02-01T06:21:49.069Z,3.16
2017-02-01T06:22:49.047Z,3.15
2017-02-01T06:23:49.032Z,3.15
2017-02-01T06:24:49.009Z,3.15
2017-02-01T06:25:48.606Z,3.2
2017-02-01T06:26:48.978Z,3.18
2017-02-01T06:27:48.954Z,3.12
2017-02-01T06:28:48.970Z,3.1
2017-02-01T06:29:48.917Z,3.13
2017-02-01T06:30:48.885Z,3.16
2017-02-01T06:31:48.913Z,3.18
2017-02-01T06:32:48.842Z,3.2
2017-02-01T06:33:48.814Z,3.2
2017-02-01T06:34:48.795Z,3.12
2017-02-01T06:35:48.787Z,3.21
2017-02-01T06:36:48.757Z,3.1
2017-02-01T06:37:48.745Z,3.15
2017-02-01T06:38:48.711Z,3.13
2017-02-01T06:39:48.686Z,3.18
2017-02-01T06:40:48.664Z,3.13
2017-02-01T06:41:48.653Z,3.16
2017-02-01T06:42:48.624Z,3.16
2017-02-01T06:43:48.610Z,3.16
2017-02-01T06:44:48.587Z,3.1
2017-02-01T06:45:48.571Z,3.12
2017-02-01T06:46:48.549Z,3.13
2017-02-01T06:47:48.565Z,3.2
2017-02-01T06:48:48.512Z,3.18
2017-02-01T06:49:48.478Z,3.18
2017-02-01T06:50:48.460Z,3.13
2017-02-01T06:51:48.436Z,3.15
2017-02-01T06:52:48.419Z,3.16
2017-02-01T06:53:48.398Z,3.12
2017-02-01T06:54:47.974Z,3.13
2017-02-01T06:55:48.356Z,3.15
2017-02-01T06:56:48.329Z,3.09
2017-02-01T06:57:48.316Z,3.1
2017-02-01T06:58:48.302Z,3.2
2017-02-01T06:59:48.268Z,3.12
2017-02-01T07:00:48.250Z,3.05
2017-02-01T07:01:48.230Z,3.12
2017-02-01T07:02:47.818Z,3.05
2017-02-01T07:03:48.186Z,3.1
2017-02-01T07:04:48.171Z,3.13
2017-02-01T07:05:48.150Z,3.16
2017-02-01T07:06:48.127Z,3.2
2017-02-01T07:07:48.101Z,3.15
2017-02-01T07:08:48.090Z,3.15
2017-02-01T07:09:48.064Z,3.2
2017-02-01T07:10:47.648Z,3.15
2017-02-01T07:11:47.226Z,3.09
2017-02-01T07:12:47.999Z,3.18
2017-02-01T07:13:47.984Z,3.18
2017-02-01T07:14:47.960Z,3.05
2017-02-01T07:15:47.939Z,3.16
2017-02-01T07:16:47.519Z,3.2
2017-02-01T07:17:47.896Z,3.2
2017-02-01T07:18:47.869Z,3.2
2017-02-01T07:19:47.456Z,3.06
2017-02-01T07:20:47.831Z,3.13
2017-02-01T07:21:47.810Z,3.2
2017-02-01T07:22:47.788Z,3.13
2017-02-01T07:23:47.770Z,3.15
2017-02-01T07:24:47.747Z,3.13
2017-02-01T07:25:47.740Z,3.16
2017-02-01T07:26:47.707Z,3.21
2017-02-01T07:27:47.682Z,3.12
2017-02-01T07:28:47.280Z,3.21
2017-02-01T07:29:47.664Z,3.25
2017-02-01T07:30:47.635Z,3.18
2017-02-01T07:31:47.607Z,3.13
2017-02-01T07:32:47.587Z,3.18
2017-02-01T07:33:47.171Z,3.15
2017-02-01T07:34:47.533Z,3.12
2017-02-01T07:35:47.524Z,3.16
2017-02-01T07:36:47.103Z,3.16
2017-02-01T07:37:47.497Z,3.18
2017-02-01T07:38:47.453Z,3.16
2017-02-01T07:39:47.435Z,3.23
2017-02-01T07:40:47.989Z,3.2
2017-02-01T07:41:47.392Z,3.18
2017-02-01T07:42:47.374Z,3.16
2017-02-01T07:43:47.459Z,3.15
2017-02-01T07:44:47.336Z,3.15
2017-02-01T07:45:46.920Z,3.16
2017-02-01T07:46:47.287Z,3.24
2017-02-01T07:47:47.263Z,3.16
2017-02-01T07:48:47.257Z,3.18
2017-02-01T07:49:46.829Z,3.13
2017-02-01T07:50:47.206Z,3.13
2017-02-01T07:51:47.186Z,3.15
2017-02-01T07:52:46.773Z,3.21
2017-02-01T07:53:47.139Z,3.2
2017-02-01T07:54:47.122Z,3.2
2017-02-01T07:55:47.104Z,3.25
2017-02-01T07:56:46.683Z,3.18
2017-02-01T07:57:47.062Z,3.27
2017-02-01T07:58:47.040Z,3.25
2017-02-01T07:59:47.016Z,3.21
2017-02-01T08:00:46.995Z,3.28
2017-02-01T08:01:46.578Z,3.25
2017-02-01T08:02:46.563Z,3.28
2017-02-01T08:03:46.929Z,3.2
2017-02-01T08:04:46.912Z,3.25
2017-02-01T08:05:46.896Z,3.27
2017-02-01T08:06:46.882Z,3.23
2017-02-01T08:07:47.051Z,3.28
2017-02-01T08:08:46.836Z,3.24
2017-02-01T08:09:46.812Z,3.28
2017-02-01T08:10:46.791Z,3.3
2017-02-01T08:11:46.766Z,3.31
2017-02-01T08:12:46.750Z,3.31
2017-02-01T08:13:46.733Z,3.3
2017-02-01T08:14:46.707Z,3.24
2017-02-01T08:15:46.688Z,3.25
2017-02-01T08:16:46.671Z,3.23
2017-02-01T08:17:46.645Z,3.31
2017-02-01T08:18:46.626Z,3.31
2017-02-01T08:19:46.628Z,3.39
2017-02-01T08:20:46.604Z,3.4
2017-02-01T08:21:46.560Z,3.42
2017-02-01T08:22:46.573Z,3.42
2017-02-01T08:23:46.520Z,3.42
2017-02-01T08:24:46.499Z,3.42
2017-02-01T08:25:46.482Z,3.47
2017-02-01T08:26:46.470Z,3.43
2017-02-01T08:27:46.043Z,3.44
2017-02-01T08:28:46.021Z,3.47
2017-02-01T08:29:46.396Z,3.47
2017-02-01T08:30:46.378Z,3.52
2017-02-01T08:31:46.359Z,3.43
2017-02-01T08:32:46.339Z,3.54
2017-02-01T08:33:46.312Z,3.5
2017-02-01T08:34:46.295Z,3.62
2017-02-01T08:35:46.289Z,3.6
2017-02-01T08:36:46.258Z,3.61
2017-02-01T08:37:46.234Z,3.65
2017-02-01T08:38:46.211Z,3.53
2017-02-01T08:39:46.195Z,3.53
2017-02-01T08:40:46.171Z,3.6
2017-02-01T08:41:46.151Z,3.64
2017-02-01T08:42:46.129Z,3.64
2017-02-01T08:43:46.111Z,3.64
2017-02-01T08:44:46.091Z,3.64
2017-02-01T08:45:46.079Z,3.67
2017-02-01T08:46:46.052Z,3.72
2017-02-01T08:47:46.027Z,3.76
2017-02-01T08:48:46.012Z,3.75
2017-02-01T08:49:45.999Z,3.75
2017-02-01T08:50:45.969Z,3.65
2017-02-01T08:51:45.945Z,3.64
2017-02-01T08:52:45.938Z,3.7
2017-02-01T08:53:45.906Z,3.75
2017-02-01T08:54:45.890Z,3.71
2017-02-01T08:55:45.899Z,3.75
2017-02-01T08:56:45.491Z,3.75
2017-02-01T08:57:45.835Z,3.79
2017-02-01T08:58:45.416Z,3.83
2017-02-01T08:59:45.796Z,3.85
2017-02-01T09:00:45.772Z,3.86
2017-02-01T09:01:45.771Z,3.86
2017-02-01T09:02:45.728Z,3.88
2017-02-01T09:03:45.706Z,3.82
2017-02-01T09:04:45.686Z,3.89
2017-02-01T09:05:45.667Z,3.83
2017-02-01T09:06:45.647Z,3.85
2017-02-01T09:07:45.626Z,3.96
2017-02-01T09:08:45.607Z,3.92
2017-02-01T09:09:45.585Z,3.89
2017-02-01T09:10:45.563Z,3.94
2017-02-01T09:11:45.550Z,3.92
2017-02-01T09:12:45.525Z,3.89
2017-02-01T09:13:45.506Z,3.94
2017-02-01T09:14:45.493Z,3.92
2017-02-01T09:15:45.469Z,3.94
2017-02-01T09:16:45.446Z,3.92
2017-02-01T09:17:45.427Z,3.97
2017-02-01T09:18:45.407Z,4
2017-02-01T09:19:45.383Z,4
2017-02-01T09:20:45.414Z,3.98
2017-02-01T09:21:45.341Z,4.04
2017-02-01T09:22:45.323Z,4
2017-02-01T09:23:45.305Z,4.03
2017-02-01T09:24:45.290Z,3.97
2017-02-01T09:25:44.875Z,3.98
2017-02-01T09:26:45.247Z,4.06
2017-02-01T09:27:45.224Z,3.92
2017-02-01T09:28:45.207Z,4.07
2017-02-01T09:29:45.194Z,4.03
2017-02-01T09:30:45.164Z,4
2017-02-01T09:31:45.150Z,4.06
2017-02-01T09:32:45.123Z,4.08
2017-02-01T09:33:45.108Z,4.06
2017-02-01T09:34:45.094Z,4.1
2017-02-01T09:35:45.067Z,4.07
2017-02-01T09:36:45.052Z,4.1
2017-02-01T09:37:45.031Z,4.14
2017-02-01T09:38:45.009Z,4.19
2017-02-01T09:39:44.997Z,4.24
2017-02-01T09:40:44.975Z,4.26
2017-02-01T09:41:44.951Z,4.22
2017-02-01T09:42:44.936Z,4.26
2017-02-01T09:43:44.921Z,4.19
2017-02-01T09:44:44.895Z,4.29
2017-02-01T09:45:44.903Z,4.34
2017-02-01T09:46:44.854Z,4.22
2017-02-01T09:47:44.834Z,4.39
2017-02-01T09:48:44.809Z,4.36
2017-02-01T09:49:44.796Z,4.37
2017-02-01T09:50:44.774Z,4.36
2017-02-01T09:51:44.365Z,4.29
2017-02-01T09:52:44.743Z,4.29
2017-02-01T09:53:44.717Z,4.37
2017-02-01T09:54:44.739Z,4.32
2017-02-01T09:55:44.683Z,4.37
2017-02-01T09:56:44.656Z,4.4
2017-02-01T09:57:44.244Z,4.36
2017-02-01T09:58:44.617Z,4.4
2017-02-01T09:59:44.207Z,4.46
2017-02-01T10:00:44.580Z,4.46
2017-02-01T10:01:44.562Z,4.58
2017-02-01T10:02:44.546Z,4.59
2017-02-01T10:03:44.528Z,4.7
2017-02-01T10:04:44.505Z,4.7
2017-02-01T10:05:44.489Z,4.67
2017-02-01T10:06:44.466Z,4.58
2017-02-01T10:07:44.647Z,4.62
2017-02-01T10:08:44.432Z,4.52
2017-02-01T10:09:44.412Z,4.55
2017-02-01T10:10:44.392Z,4.61
2017-02-01T10:11:43.985Z,4.47
2017-02-01T10:12:44.357Z,4.52
2017-02-01T10:13:44.352Z,4.57
2017-02-01T10:14:44.340Z,4.52
2017-02-01T10:15:43.919Z,4.51
2017-02-01T10:16:43.882Z,4.57
2017-02-01T10:17:43.867Z,4.62
2017-02-01T10:18:44.244Z,4.67
2017-02-01T10:19:44.225Z,4.69
2017-02-01T10:20:44.206Z,4.67
2017-02-01T10:21:44.186Z,4.7
2017-02-01T10:22:44.167Z,4.73
2017-02-01T10:23:43.784Z,4.7
2017-02-01T10:24:44.132Z,4.79
2017-02-01T10:25:44.111Z,4.7
2017-02-01T10:26:44.142Z,4.77
2017-02-01T10:27:44.078Z,4.86
2017-02-01T10:28:43.667Z,4.92
2017-02-01T10:29:44.040Z,4.92
2017-02-01T10:30:44.018Z,4.91
2017-02-01T10:31:43.607Z,4.99
2017-02-01T10:32:43.981Z,5.02
2017-02-01T10:33:43.562Z,5.05
2017-02-01T10:34:43.944Z,5.01
2017-02-01T10:35:43.924Z,4.92
2017-02-01T10:36:43.912Z,4.96
2017-02-01T10:37:43.894Z,4.99
2017-02-01T10:38:43.873Z,5.02
2017-02-01T10:39:43.849Z,4.95
2017-02-01T10:40:43.838Z,4.96
2017-02-01T10:41:43.419Z,4.92
2017-02-01T10:42:43.403Z,5.05
2017-02-01T10:43:43.782Z,5.05
2017-02-01T10:44:43.763Z,5.12
2017-02-01T10:45:43.739Z,5.14
2017-02-01T10:46:43.724Z,5.19
2017-02-01T10:47:43.703Z,5.12
2017-02-01T10:48:43.689Z,5.09
2017-02-01T10:49:43.678Z,5.12
2017-02-01T10:50:43.647Z,5.1
2017-02-01T10:51:43.640Z,5.17
2017-02-01T10:52:43.217Z,5.13
2017-02-01T10:53:43.598Z,5.16
2017-02-01T10:54:43.577Z,5.23
2017-02-01T10:55:43.168Z,5.27
2017-02-01T10:56:43.544Z,5.49
2017-02-01T10:57:43.535Z,5.48
2017-02-01T10:58:43.504Z,5.46
2017-02-01T10:59:43.490Z,5.4
2017-02-01T11:00:43.472Z,5.43
2017-02-01T11:01:43.455Z,5.71
2017-02-01T11:02:43.440Z,5.88
2017-02-01T11:03:43.415Z,6.13
2017-02-01T11:04:43.403Z,6.32
2017-02-01T11:05:43.384Z,6.38
2017-02-01T11:06:43.370Z,6.56
2017-02-01T11:07:43.351Z,6.86
2017-02-01T11:08:43.333Z,6.99
2017-02-01T11:09:43.324Z,7.07
2017-02-01T11:10:43.304Z,7.35
2017-02-01T11:11:43.297Z,7.38
2017-02-01T11:12:42.877Z,7.35
2017-02-01T11:13:43.260Z,7.2
2017-02-01T11:14:43.246Z,7.09
2017-02-01T11:15:43.230Z,7.17
2017-02-01T11:16:42.819Z,7.41
2017-02-01T11:17:43.195Z,7.27
2017-02-01T11:18:43.179Z,6.94
2017-02-01T11:19:43.177Z,7.26
2017-02-01T11:20:42.766Z,7.26
2017-02-01T11:21:43.139Z,7.19
2017-02-01T11:22:43.123Z,7.47
2017-02-01T11:23:43.112Z,7.42
2017-02-01T11:24:43.100Z,7.13
2017-02-01T11:25:43.081Z,7.44
2017-02-01T11:26:43.072Z,7.77
2017-02-01T11:27:42.661Z,7.52
2017-02-01T11:28:43.041Z,7.79
2017-02-01T11:29:43.022Z,7.93
2017-02-01T11:30:43.012Z,8.03
2017-02-01T11:31:42.996Z,8.04
2017-02-01T11:32:42.994Z,8
2017-02-01T11:33:43.014Z,8.12
2017-02-01T11:34:42.985Z,8.08
2017-02-01T11:35:42.958Z,8.14
2017-02-01T11:36:42.540Z,8.32
2017-02-01T11:37:42.923Z,8.36
2017-02-01T11:38:42.906Z,8.45
2017-02-01T11:39:42.897Z,8.58
2017-02-01T11:40:42.938Z,8.76
2017-02-01T11:41:42.878Z,8.96
2017-02-01T11:42:42.474Z,8.97
2017-02-01T11:43:42.849Z,9.45
2017-02-01T11:44:42.838Z,9.35
2017-02-01T11:45:42.822Z,9.4
2017-02-01T11:46:42.418Z,9.75
2017-02-01T11:47:42.803Z,9.63
2017-02-01T11:48:42.403Z,9.57
2017-02-01T11:49:42.389Z,9.5
2017-02-01T11:50:42.774Z,9.18
2017-02-01T11:51:42.482Z,8.79
2017-02-01T11:52:42.786Z,8.55
2017-02-01T11:53:42.361Z,8.18
2017-02-01T11:54:42.763Z,7.97
2017-02-01T11:55:42.783Z,7.84
2017-02-01T11:56:42.736Z,7.71
2017-02-01T11:57:42.737Z,7.67
2017-02-01T11:58:42.718Z,7.59
2017-02-01T11:59:42.720Z,7.62
2017-02-01T12:00:42.669Z,7.58
2017-02-01T12:01:42.647Z,7.67
2017-02-01T12:02:42.639Z,7.67
2017-02-01T12:03:42.635Z,7.77
2017-02-01T12:04:42.615Z,7.71
2017-02-01T12:05:42.201Z,7.89
2017-02-01T12:06:42.598Z,7.82
2017-02-01T12:07:42.809Z,7.79
2017-02-01T12:08:42.164Z,7.87
2017-02-01T12:09:42.552Z,8.11
2017-02-01T12:10:42.541Z,8.17
2017-02-01T12:11:42.157Z,7.97
2017-02-01T12:12:42.150Z,7.96
2017-02-01T12:13:41.699Z,8.03
2017-02-01T12:14:42.478Z,8.18
2017-02-01T12:15:42.470Z,8.33
2017-02-01T12:16:42.458Z,8.69
2017-02-01T12:17:42.455Z,8.99
2017-02-01T12:18:42.429Z,9.2
2017-02-01T12:19:42.426Z,9.46
2017-02-01T12:20:42.408Z,9.66
2017-02-01T12:21:42.000Z,9.82
2017-02-01T12:22:42.394Z,9.76
2017-02-01T12:23:42.379Z,9.85
2017-02-01T12:24:42.375Z,10
2017-02-01T12:25:42.366Z,9.91
2017-02-01T12:26:42.351Z,10.21
2017-02-01T12:27:42.343Z,10.4
2017-02-01T12:28:42.326Z,10.26
2017-02-01T12:29:42.318Z,10.34
2017-02-01T12:30:42.315Z,10.42
2017-02-01T12:31:42.308Z,10.56
2017-02-01T12:32:42.295Z,10.78
2017-02-01T12:33:42.284Z,11.06
2017-02-01T12:34:41.897Z,11.19
2017-02-01T12:35:42.279Z,11.35
2017-02-01T12:36:42.280Z,11.31
2017-02-01T12:37:42.267Z,11.2
2017-02-01T12:38:42.255Z,11.35
2017-02-01T12:39:42.246Z,11.32
2017-02-01T12:40:42.249Z,11.35
2017-02-01T12:41:42.237Z,11.35
2017-02-01T12:42:41.831Z,11.24
2017-02-01T12:43:42.312Z,11.62
2017-02-01T12:44:42.262Z,11.94
2017-02-01T12:45:41.831Z,11.87
2017-02-01T12:46:42.209Z,12.06
2017-02-01T12:47:42.195Z,12.3
2017-02-01T12:48:42.190Z,12.21
2017-02-01T12:49:41.791Z,11.8
2017-02-01T12:50:42.178Z,11.99
2017-02-01T12:51:42.171Z,11.94
2017-02-01T12:52:42.167Z,12.24
2017-02-01T12:53:42.167Z,12.06
2017-02-01T12:54:42.154Z,12.2
2017-02-01T12:55:42.148Z,12.13
2017-02-01T12:56:42.146Z,11.99
2017-02-01T12:57:42.140Z,11.97
2017-02-01T12:58:42.140Z,12.16
2017-02-01T12:59:42.128Z,12.12
2017-02-01T13:00:41.763Z,12.01
2017-02-01T13:01:42.116Z,12.24
2017-02-01T13:02:42.114Z,12.33
2017-02-01T13:03:41.708Z,12.31
2017-02-01T13:04:42.105Z,12.29
2017-02-01T13:05:42.097Z,12.45
2017-02-01T13:06:42.095Z,12.45
2017-02-01T13:07:42.089Z,12.27
2017-02-01T13:08:42.083Z,12.26
2017-02-01T13:09:42.078Z,12.24
2017-02-01T13:10:42.071Z,11.97
2017-02-01T13:11:42.065Z,12.37
2017-02-01T13:12:42.064Z,12.48
2017-02-01T13:13:42.064Z,12.44
2017-02-01T13:14:42.052Z,12.57
2017-02-01T13:15:42.096Z,12.7
2017-02-01T13:16:42.046Z,13.03
2017-02-01T13:17:42.038Z,13.21
2017-02-01T13:18:42.029Z,12.75
2017-02-01T13:19:42.029Z,12.41
2017-02-01T13:20:42.024Z,12.63